• Join FlightAware (Why Join?)
  • Login
  • US Flag 
03:31PM EST


 

Airport Tracker/Info


-or-


 

Live Flight TrackerFlight Track Log ✈ EJA641 ✈ 02-May-2013 ✈ KPBI - KPHL

Flight Track Log - Related Links

Times and Time Zones

All times are in EDT time to prevent confusion due to time zone crossing. See the EJA641 flight status page for this flight to view local times or setup timezone preferences in your user account.

Time Position Orientation Groundspeed Altitude Reporting Facility
EDT Latitude Longitude Course Direction KTS MPH feet Rate Location/Type
01:39PM 26.7519 -80.0322 332° Northwest 268 308 7,300  Level Miami Center
01:40PM 26.7714 -80.0933 290° West 273 314 9,600 2,200 Climbing Miami Center
01:41PM 26.7967 -80.1800 288° West 287 330 11,700 2,150 Climbing Miami Center
01:42PM 26.8092 -80.2733 279° West 292 336 13,900 1,600 Climbing Miami Center
01:43PM 26.8783 -80.3522 315° West 308 354 14,900 1,950 Climbing Miami Center
01:44PM 26.9954 -80.3850 338° Northwest  Level FlightAware Approximate
01:44PM 26.9564 -80.4011 331° Northwest 303 349 17,800  Level Miami Center
01:45PM 27.0965 -80.4346 332° Northwest  Level FlightAware Approximate
01:45PM 27.0303 -80.4478 331° Northwest 315 362 19,000  Level Miami Center
01:46PM 27.1147 -80.4947 334° Northwest 329 379 20,500 1,700 Climbing Miami Center
01:47PM 27.2011 -80.5464 332° Northwest 340 391 22,400 1,750 Climbing Miami Center
01:48PM 27.2917 -80.5983 333° Northwest 345 397 24,000 1,300 Climbing Miami Center
01:49PM 27.3822 -80.6506 333° Northwest 357 411 25,000 500 Climbing Miami Center
01:50PM 27.4789 -80.7075 332° Northwest 368 423 25,000  Level Miami Center
01:51PM 27.5817 -80.7672 333° Northwest 392 451 25,000  Level Miami Center
01:52PM 27.6844 -80.8269 333° Northwest 406 467 25,000  Level Miami Center
01:53PM 27.7872 -80.8869 333° Northwest 406 467 25,000  Level Miami Center
01:54PM 27.8814 -80.9442 332° Northwest 395 455 25,000  Level Miami Center
01:55PM 27.9739 -80.9969 333° Northwest 384 442 25,000  Level Miami Center
01:56PM 28.0703 -81.0569 331° Northwest 384 442 25,000  Level Miami Center
01:57PM 28.1625 -81.1097 333° Northwest 384 442 25,000  Level Miami Center
01:58PM 28.2650 -81.1700 333° Northwest 379 436 25,000  Level Miami Center
02:01PM 28.4736 -81.2772 336° Northwest 375 432 25,000  Level Jacksonville Center
02:02PM 28.5822 -81.2897 354° North 380 437 25,000  Level Jacksonville Center
02:03PM 28.6764 -81.3047 352° North 380 437 25,000  Level Jacksonville Center
02:04PM 28.7831 -81.3172 354° North 380 437 25,000  Level Jacksonville Center
02:05PM 28.8981 -81.3322 353° North 392 451 25,000  Level Jacksonville Center
02:06PM 29.0172 -81.3444 355° North 411 473 25,000  Level Jacksonville Center
02:07PM 29.1342 -81.3617 353° North 416 479 25,000  Level Jacksonville Center
02:08PM 29.2469 -81.3742 354° North 416 479 25,000  Level Jacksonville Center
02:09PM 29.3619 -81.3892 354° North 416 479 25,000  Level Jacksonville Center
02:10PM 29.4728 -81.4064 352° North 410 472 25,000  Level Jacksonville Center
02:11PM 29.5900 -81.4167 356° North 405 466 25,000  Level Jacksonville Center
02:12PM 29.7008 -81.4317 353° North 405 466 25,000  Level Jacksonville Center
02:13PM 29.8136 -81.4467 353° North 405 466 25,000  Level Jacksonville Center
02:14PM 29.9286 -81.4594 354° North 410 472 25,000  Level Jacksonville Center
02:15PM 30.0394 -81.4744 353° North 410 472 25,000  Level Jacksonville Center
02:16PM 30.1481 -81.4872 354° North 404 465 25,000  Level Jacksonville Center
02:17PM 30.2569 -81.5003 354° North 399 459 25,000  Level Jacksonville Center
02:18PM 30.3633 -81.5083 356° North 389 448 25,000  Level Jacksonville Center
02:19PM 30.4739 -81.4994 North 384 442 25,000  Level Jacksonville Center
02:20PM 30.5844 -81.4931 North 384 442 25,000  Level Jacksonville Center
02:21PM 30.6950 -81.4817 North 389 448 25,000  Level Jacksonville Center
02:22PM 30.8056 -81.4753 North 389 448 25,000  Level Jacksonville Center
02:23PM 30.9161 -81.4664 North 389 448 25,000  Level Jacksonville Center
02:24PM 31.0267 -81.4550 North 394 453 25,000  Level Jacksonville Center
02:25PM 31.1414 -81.4483 North 400 460 25,000  Level Jacksonville Center
02:26PM 31.2542 -81.4392 North 400 460 25,000  Level Jacksonville Center
02:27PM 31.3603 -81.4086 14° North 405 466 25,000  Level Jacksonville Center
02:28PM 31.4811 -81.3772 12° North 400 460 25,000  Level Jacksonville Center
02:29PM 31.5850 -81.3489 13° North 395 455 25,000  Level Jacksonville Center
02:30PM 31.6828 -81.3253 12° North 389 448 25,000  Level Jacksonville Center
02:31PM 31.7994 -81.2939 13° North 395 455 25,000  Level Jacksonville Center
02:32PM 31.8972 -81.2678 13° North 395 455 25,000  Level Jacksonville Center
02:33PM 32.0011 -81.2389 13° North 390 449 25,000  Level Jacksonville Center
02:34PM 32.1094 -81.2100 13° North 390 449 25,000  Level Jacksonville Center
02:35PM 32.2069 -81.1592 24° Northeast 390 449 25,000  Level Jacksonville Center
02:36PM 32.3019 -81.0886 32° Northeast 385 443 25,000  Level Jacksonville Center
02:37PM 32.3928 -81.0253 30° Northeast 385 443 25,000  Level Jacksonville Center
02:38PM 32.4858 -80.9544 33° Northeast 385 443 25,000  Level Jacksonville Center
02:39PM 32.5808 -80.8883 30° Northeast 385 443 25,000  Level Jacksonville Center
02:40PM 32.6756 -80.8169 32° Northeast 385 443 25,000  Level Jacksonville Center
02:41PM 32.7725 -80.7481 31° Northeast 390 449 25,000  Level Jacksonville Center
02:42PM 32.8694 -80.6814 30° Northeast 390 449 25,000  Level Jacksonville Center
02:43PM 32.9728 -80.6194 27° Northeast 401 461 25,000  Level Jacksonville Center
02:44PM 33.0719 -80.5600 27° Northeast 401 461 25,000  Level Jacksonville Center
02:45PM 33.1731 -80.4978 27° Northeast 401 461 25,000  Level Jacksonville Center
02:46PM 33.2844 -80.4303 27° Northeast 401 461 25,000  Level Jacksonville Center
02:47PM 33.3856 -80.3678 27° Northeast 401 461 25,000  Level Jacksonville Center
02:48PM 33.4822 -80.3078 27° Northeast 401 461 25,000  Level Jacksonville Center
02:49PM 33.5833 -80.2450 27° Northeast 401 461 25,000  Level Jacksonville Center
02:50PM 33.6822 -80.1844 27° Northeast 401 461 25,000  Level Jacksonville Center
02:51PM 33.7747 -80.1242 28° Northeast 394 453 25,000  Level Jacksonville Center
02:52PM 33.8653 -80.0689 27° Northeast 379 436 25,000  Level Jacksonville Center
02:53PM 33.9581 -80.0133 26° Northeast 366 421 25,000  Level Jacksonville Center
02:54PM 34.0506 -79.9550 28° Northeast 366 421 25,000  Level Jacksonville Center
02:55PM 34.2022 -79.8581 28° Northeast 356 410 25,000  Level Washington Center
02:56PM 34.3003 -79.7978 27° Northeast 372 428 25,000  Level Washington Center
02:57PM 34.3942 -79.7369 28° Northeast 378 435 25,000  Level Washington Center
02:58PM 34.4881 -79.6789 27° Northeast 378 435 25,000  Level Washington Center
02:59PM 34.5861 -79.6181 27° Northeast 383 441 25,000  Level Washington Center
03:00PM 34.6800 -79.5544 29° Northeast 383 441 25,000  Level Washington Center
03:01PM 34.7778 -79.4936 27° Northeast 383 441 25,000  Level Washington Center
03:02PM 34.8739 -79.4325 28° Northeast 383 441 25,000  Level Washington Center
03:03PM 34.9717 -79.3711 27° Northeast 383 441 25,000  Level Washington Center
03:04PM 35.0697 -79.3072 28° Northeast 388 447 25,000  Level Washington Center
03:05PM 35.1678 -79.2431 28° Northeast 388 447 25,000  Level Washington Center
03:06PM 35.2656 -79.1814 27° Northeast 388 447 25,000  Level Washington Center
03:07PM 35.3656 -79.1172 28° Northeast 394 453 25,000  Level Washington Center
03:08PM 35.4633 -79.0550 27° Northeast 400 460 25,000  Level Washington Center
03:09PM 35.5611 -78.9906 28° Northeast 400 460 25,000  Level Washington Center
03:10PM 35.6589 -78.9281 27° Northeast 400 460 25,000  Level Washington Center
03:11PM 35.7567 -78.8631 28° Northeast 400 460 25,000  Level Washington Center
03:12PM 35.8503 -78.8003 29° Northeast 400 460 25,000  Level Washington Center
03:13PM 35.9439 -78.7247 33° Northeast 400 460 25,000  Level Washington Center
03:14PM 36.0231 -78.6558 35° Northeast 393 452 25,000  Level Washington Center
03:15PM 36.1147 -78.5744 36° Northeast 393 452 25,000  Level Washington Center
03:16PM 36.2022 -78.4956 36° Northeast 393 452 25,000  Level Washington Center
03:17PM 36.2917 -78.4189 35° Northeast 393 452 25,000 -298 Level Washington Center
03:18PM 36.3814 -78.3369 36° Northeast 388 447 24,400 -508 Descending Washington Center
03:19PM 36.4686 -78.2625 34° Northeast 388 447 24,000 -203 Descending Washington Center
03:20PM 36.5558 -78.1856 35° Northeast 388 447 24,000  Level Washington Center
03:21PM 36.6472 -78.1006 37° Northeast 383 441 24,000  Level Washington Center
03:22PM 36.7322 -78.0228 36° Northeast 378 435 24,000  Level Washington Center
03:23PM 36.8172 -77.9478 35° Northeast 378 435 24,000  Level Washington Center
03:24PM 36.9022 -77.8697 36° Northeast 378 435 24,000  Level Washington Center
03:25PM 36.9872 -77.7892 37° Northeast 378 435 24,000  Level Washington Center
03:26PM 37.0656 -77.7211 35° Northeast 378 435 24,000 -443 Level Washington Center
03:27PM 37.1525 -77.6400 37° Northeast 378 435 23,100 -504 Descending Washington Center
03:28PM 37.2372 -77.5639 36° Northeast 378 435 23,000 -50 Descending Washington Center
03:29PM 37.3242 -77.4828 37° Northeast 378 435 23,000  Level Washington Center
03:30PM 37.4108 -77.4089 34° Northeast 378 435 23,000  Level Washington Center
03:31PM 37.5017 -77.3222 37° Northeast 378 435 23,000  Level Washington Center
03:32PM 37.5842 -77.2375 39° Northeast 378 435 23,000  Level Washington Center
03:33PM 37.6647 -77.1553 39° Northeast 373 429 23,000  Level Washington Center
03:34PM 37.7469 -77.0731 38° Northeast 373 429 23,000  Level Washington Center
03:35PM 37.8253 -76.9903 40° Northeast 373 429 23,000 -645 Level Washington Center
03:36PM 37.9053 -76.9103 38° Northeast 373 429 21,700 -1,289 Descending Washington Center
03:37PM 37.9814 -76.8272 41° Northeast 368 423 20,400 -1,373 Descending Washington Center
03:38PM 38.0511 -76.7336 47° Northeast 357 411 19,000 -1,169 Descending Washington Center
03:39PM 38.1164 -76.6394 49° Northeast 352 405 18,100 -992 Descending Washington Center
03:40PM 38.1839 -76.5453 48° Northeast 352 405 17,000 -545 Descending Washington Center
03:41PM 38.2472 -76.4508 49° Northeast 352 405 17,000  Level Washington Center
03:42PM 38.3125 -76.3803 40° Northeast 347 399 17,000  Level Washington Center
03:43PM 38.3964 -76.2883 41° Northeast 347 399 17,000 -397 Level Washington Center
03:44PM 38.4781 -76.2256 31° Northeast 355 409 16,200 -1,373 Descending Washington Center
03:45PM 38.5533 -76.1467 39° Northeast 355 409 14,300 -1,590 Descending Washington Center
03:46PM 38.6392 -76.0808 31° Northeast 360 414 13,100 -645 Descending Washington Center
03:47PM 38.7144 -76.0042 38° Northeast 353 406 13,000 -49 Descending Washington Center
03:48PM 38.7919 -75.9325 36° Northeast 348 400 13,000 -50 Level Washington Center
03:49PM 38.8692 -75.8608 36° Northeast 343 395 12,900 -50 Descending Washington Center
03:50PM 38.9464 -75.7864 37° Northeast 343 395 12,900 -295 Level Washington Center
03:51PM 39.0217 -75.7172 36° Northeast 338 389 12,300 -805 Descending Washington Center
03:53PM 39.1833 -75.6667 14° North 294 338 10,700 -803 Descending Philadelphia TRACON
03:54PM 39.2500 -75.6500 11° North 288 331 10,200 -368 Descending Philadelphia TRACON
03:55PM 39.3167 -75.6167 21° North 280 322 10,000 -400 Descending Philadelphia TRACON
03:56PM 39.3833 -75.5667 30° Northeast 281 323 9,400 -895 Descending Philadelphia TRACON
03:57PM 39.4333 -75.5000 46° Northeast 266 306 8,300 -1,474 Descending Philadelphia TRACON
03:58PM 39.4833 -75.4333 46° Northeast 261 300 6,600 -1,476 Descending Philadelphia TRACON
03:59PM 39.5500 -75.3667 38° Northeast 233 268 5,200 -1,143 Descending Philadelphia TRACON
04:00PM 39.6000 -75.3167 38° Northeast 239 275 4,200 -1,100 Descending Philadelphia TRACON
04:01PM 39.6333 -75.2667 49° Northeast 212 244 3,000 -571 Descending Philadelphia TRACON
04:02PM 39.6833 -75.2167 38° Northeast 196 226 3,000  Level Philadelphia TRACON
04:03PM 39.7167 -75.2000 21° North 171 197 3,000 -450 Level Philadelphia TRACON
04:04PM 39.7833 -75.2000 360° North 178 205 2,100 -818 Descending Philadelphia TRACON